CFG89 EDXW-EDDH
Flight info
| Callsign | CFG89 |
|---|---|
| Flight time | 0h 32m |
| Altitude | 9000 |
| Route | OLDIP1B OLDIP DCT BADOS DCT RENSU DCT BOGMU BOGMU3P |
| Aircraft | A20N/M-SDE2E3FGHIRWXY/LB1 |
Departure
| Time | 2026-04-24 16:10 |
|---|---|
| Airport | Westerland Sylt Airport (EDXW) |
Arrival
| Time | 2026-04-24 16:42 |
|---|---|
| Airport | Hamburg Helmut Schmidt Airport (EDDH) |
| Time | Latitude | Longitude | Altitude | Speed | Heading |
|---|---|---|---|---|---|
| 2026-04-24 15:44 | 54.92024 | 8.33889 | 47 ft | 0 kts | 86° |
| 2026-04-24 16:01 | 54.92025 | 8.33911 | 47 ft | 7 kts | 86° |
| 2026-04-24 16:02 | 54.92023 | 8.33988 | 48 ft | 10 kts | 107° |
| 2026-04-24 16:02 | 54.92017 | 8.34005 | 48 ft | 3 kts | 119° |
| 2026-04-24 16:02 | 54.92009 | 8.34028 | 46 ft | 5 kts | 121° |
| 2026-04-24 16:02 | 54.91980 | 8.34015 | 47 ft | 6 kts | 238° |
| 2026-04-24 16:03 | 54.91977 | 8.33901 | 45 ft | 15 kts | 267° |
| 2026-04-24 16:03 | 54.91972 | 8.33678 | 41 ft | 21 kts | 268° |
| 2026-04-24 16:03 | 54.91952 | 8.33407 | 39 ft | 23 kts | 253° |
| 2026-04-24 16:03 | 54.91848 | 8.33214 | 40 ft | 23 kts | 202° |
| 2026-04-24 16:04 | 54.91678 | 8.33177 | 39 ft | 27 kts | 180° |
| 2026-04-24 16:04 | 54.91475 | 8.33176 | 33 ft | 31 kts | 180° |
| 2026-04-24 16:04 | 54.91251 | 8.33187 | 35 ft | 32 kts | 185° |
| 2026-04-24 16:04 | 54.91169 | 8.33179 | 37 ft | 0 kts | 177° |
| 2026-04-24 16:05 | 54.91135 | 8.33181 | 36 ft | 10 kts | 181° |
| 2026-04-24 16:06 | 54.90885 | 8.33156 | 38 ft | 26 kts | 165° |
| 2026-04-24 16:06 | 54.90669 | 8.33240 | 34 ft | 35 kts | 174° |
| 2026-04-24 16:06 | 54.90259 | 8.33703 | 28 ft | 39 kts | 109° |
| 2026-04-24 16:07 | 54.90241 | 8.34093 | 29 ft | 30 kts | 79° |
| 2026-04-24 16:07 | 54.90274 | 8.34511 | 32 ft | 37 kts | 78° |
| 2026-04-24 16:07 | 54.90331 | 8.35031 | 40 ft | 0 kts | 71° |
| 2026-04-24 16:09 | 54.90419 | 8.35168 | 42 ft | 17 kts | 351° |
| 2026-04-24 16:09 | 54.90443 | 8.35143 | 42 ft | 0 kts | 319° |
| 2026-04-24 16:09 | 54.90467 | 8.35110 | 42 ft | 27 kts | 324° |
| 2026-04-24 16:10 | 54.92410 | 8.32676 | 1531 ft | 142 kts | 326° |
| 2026-04-24 16:11 | 54.94138 | 8.30542 | 3278 ft | 170 kts | 326° |
| 2026-04-24 16:11 | 54.95174 | 8.29274 | 3809 ft | 190 kts | 326° |
| 2026-04-24 16:11 | 54.96246 | 8.27950 | 3909 ft | 187 kts | 325° |
| 2026-04-24 16:12 | 54.98072 | 8.24684 | 4518 ft | 200 kts | 293° |
| 2026-04-24 16:12 | 54.98184 | 8.22236 | 5530 ft | 209 kts | 265° |
| 2026-04-24 16:12 | 54.96723 | 8.17837 | 7419 ft | 224 kts | 240° |
| 2026-04-24 16:13 | 54.95788 | 8.15623 | 8226 ft | 232 kts | 240° |
| 2026-04-24 16:13 | 54.93021 | 8.12789 | 8450 ft | 254 kts | 184° |
| 2026-04-24 16:14 | 54.89571 | 8.15579 | 8713 ft | 300 kts | 138° |
| 2026-04-24 16:14 | 54.88033 | 8.18095 | 8844 ft | 313 kts | 135° |
| 2026-04-24 16:14 | 54.84802 | 8.23279 | 9074 ft | 316 kts | 138° |
| 2026-04-24 16:15 | 54.83695 | 8.24929 | 9158 ft | 317 kts | 139° |
| 2026-04-24 16:15 | 54.79449 | 8.30009 | 9153 ft | 317 kts | 148° |
| 2026-04-24 16:16 | 54.75791 | 8.33983 | 9152 ft | 317 kts | 148° |
| 2026-04-24 16:16 | 54.73925 | 8.36016 | 9161 ft | 317 kts | 148° |
| 2026-04-24 16:17 | 54.68558 | 8.42568 | 9156 ft | 315 kts | 126° |
| 2026-04-24 16:17 | 54.66727 | 8.49260 | 9152 ft | 312 kts | 108° |
| 2026-04-24 16:18 | 54.65105 | 8.56218 | 9154 ft | 311 kts | 109° |
| 2026-04-24 16:18 | 54.63470 | 8.63151 | 9155 ft | 312 kts | 109° |
| 2026-04-24 16:18 | 54.62645 | 8.66624 | 9147 ft | 312 kts | 109° |
| 2026-04-24 16:19 | 54.60347 | 8.72909 | 9154 ft | 316 kts | 133° |
| 2026-04-24 16:19 | 54.58785 | 8.75598 | 9146 ft | 316 kts | 133° |
| 2026-04-24 16:20 | 54.55682 | 8.81011 | 9139 ft | 316 kts | 133° |
| 2026-04-24 16:20 | 54.52610 | 8.86389 | 9134 ft | 316 kts | 133° |
| 2026-04-24 16:20 | 54.51083 | 8.89057 | 9135 ft | 316 kts | 133° |
| 2026-04-24 16:21 | 54.47979 | 8.94472 | 9139 ft | 316 kts | 133° |
| 2026-04-24 16:21 | 54.46430 | 8.97168 | 9144 ft | 316 kts | 133° |
| 2026-04-24 16:21 | 54.44886 | 8.99852 | 9140 ft | 316 kts | 133° |
| 2026-04-24 16:22 | 54.43342 | 9.02535 | 9130 ft | 316 kts | 133° |
| 2026-04-24 16:22 | 54.40251 | 9.07896 | 9136 ft | 315 kts | 133° |
| 2026-04-24 16:22 | 54.38723 | 9.10542 | 9149 ft | 315 kts | 133° |
| 2026-04-24 16:23 | 54.37307 | 9.13378 | 9145 ft | 313 kts | 120° |
| 2026-04-24 16:23 | 54.36365 | 9.16678 | 9142 ft | 308 kts | 104° |
| 2026-04-24 16:23 | 54.35711 | 9.20171 | 9135 ft | 308 kts | 104° |
| 2026-04-24 16:24 | 54.34383 | 9.27085 | 9120 ft | 308 kts | 104° |
| 2026-04-24 16:24 | 54.33707 | 9.30563 | 9124 ft | 308 kts | 104° |
| 2026-04-24 16:24 | 54.33029 | 9.34034 | 9120 ft | 308 kts | 104° |
| 2026-04-24 16:24 | 54.32349 | 9.37519 | 9135 ft | 308 kts | 104° |
| 2026-04-24 16:25 | 54.31691 | 9.40880 | 9125 ft | 308 kts | 104° |
| 2026-04-24 16:25 | 54.31011 | 9.44355 | 9123 ft | 308 kts | 104° |
| 2026-04-24 16:25 | 54.30328 | 9.47840 | 9130 ft | 308 kts | 104° |
| 2026-04-24 16:26 | 54.28981 | 9.54687 | 9125 ft | 308 kts | 104° |
| 2026-04-24 16:26 | 54.28294 | 9.58168 | 9128 ft | 308 kts | 105° |
| 2026-04-24 16:26 | 54.26926 | 9.65073 | 9134 ft | 308 kts | 104° |
| 2026-04-24 16:27 | 54.26237 | 9.68547 | 9122 ft | 308 kts | 104° |
| 2026-04-24 16:27 | 54.25547 | 9.72025 | 9122 ft | 309 kts | 104° |
| 2026-04-24 16:27 | 54.24848 | 9.75501 | 9134 ft | 309 kts | 107° |
| 2026-04-24 16:27 | 54.23874 | 9.78767 | 9118 ft | 313 kts | 121° |
| 2026-04-24 16:28 | 54.22499 | 9.81659 | 9134 ft | 315 kts | 130° |
| 2026-04-24 16:28 | 54.21033 | 9.84457 | 9120 ft | 315 kts | 129° |
| 2026-04-24 16:28 | 54.17982 | 9.89848 | 9127 ft | 320 kts | 142° |
| 2026-04-24 16:29 | 54.16063 | 9.92199 | 9118 ft | 356 kts | 144° |
| 2026-04-24 16:29 | 54.14050 | 9.94635 | 9057 ft | 347 kts | 144° |
| 2026-04-24 16:29 | 54.10314 | 9.99135 | 8563 ft | 313 kts | 144° |
| 2026-04-24 16:30 | 54.06798 | 10.03333 | 7494 ft | 307 kts | 144° |
| 2026-04-24 16:30 | 54.05023 | 10.05418 | 6948 ft | 304 kts | 144° |
| 2026-04-24 16:30 | 54.03306 | 10.07423 | 6426 ft | 302 kts | 144° |
| 2026-04-24 16:31 | 54.01581 | 10.09434 | 5948 ft | 300 kts | 144° |
| 2026-04-24 16:31 | 53.99875 | 10.11439 | 5611 ft | 297 kts | 144° |
| 2026-04-24 16:31 | 53.98188 | 10.13434 | 5261 ft | 294 kts | 144° |
| 2026-04-24 16:31 | 53.96520 | 10.15419 | 4910 ft | 292 kts | 144° |
| 2026-04-24 16:32 | 53.95419 | 10.16736 | 4677 ft | 290 kts | 144° |
| 2026-04-24 16:32 | 53.93227 | 10.19377 | 4213 ft | 287 kts | 144° |
| 2026-04-24 16:32 | 53.91626 | 10.21326 | 4079 ft | 282 kts | 144° |
| 2026-04-24 16:32 | 53.90009 | 10.23302 | 4037 ft | 285 kts | 144° |
| 2026-04-24 16:33 | 53.88423 | 10.25236 | 3799 ft | 283 kts | 144° |
| 2026-04-24 16:33 | 53.86829 | 10.27189 | 3467 ft | 282 kts | 144° |
| 2026-04-24 16:33 | 53.85245 | 10.29152 | 3145 ft | 280 kts | 144° |
| 2026-04-24 16:33 | 53.83699 | 10.31073 | 3047 ft | 273 kts | 144° |
| 2026-04-24 16:34 | 53.82218 | 10.32909 | 2967 ft | 255 kts | 144° |
| 2026-04-24 16:34 | 53.80836 | 10.34624 | 2973 ft | 242 kts | 144° |
| 2026-04-24 16:34 | 53.79460 | 10.36327 | 2963 ft | 246 kts | 144° |
| 2026-04-24 16:34 | 53.78060 | 10.38062 | 2972 ft | 249 kts | 142° |
| 2026-04-24 16:35 | 53.76561 | 10.39426 | 2977 ft | 242 kts | 170° |
| 2026-04-24 16:35 | 53.74908 | 10.39378 | 2976 ft | 238 kts | 203° |
| 2026-04-24 16:35 | 53.73570 | 10.37973 | 2969 ft | 225 kts | 235° |
| 2026-04-24 16:35 | 53.72913 | 10.35664 | 2977 ft | 216 kts | 265° |
| 2026-04-24 16:36 | 53.72823 | 10.33216 | 2969 ft | 201 kts | 275° |
| 2026-04-24 16:36 | 53.72881 | 10.30922 | 2984 ft | 185 kts | 278° |
| 2026-04-24 16:36 | 53.72970 | 10.28827 | 2964 ft | 172 kts | 279° |
| 2026-04-24 16:36 | 53.73071 | 10.26884 | 2734 ft | 163 kts | 285° |
| 2026-04-24 16:37 | 53.73226 | 10.24997 | 2630 ft | 172 kts | 280° |
| 2026-04-24 16:37 | 53.73273 | 10.23639 | 2577 ft | 170 kts | 277° |
| 2026-04-24 16:37 | 53.73289 | 10.21683 | 2470 ft | 161 kts | 273° |
| 2026-04-24 16:37 | 53.72903 | 10.19284 | 2372 ft | 163 kts | 249° |
| 2026-04-24 16:38 | 53.72318 | 10.17764 | 2314 ft | 152 kts | 240° |
| 2026-04-24 16:38 | 53.71883 | 10.16827 | 2256 ft | 146 kts | 239° |
| 2026-04-24 16:38 | 53.71255 | 10.15547 | 2201 ft | 137 kts | 240° |
| 2026-04-24 16:38 | 53.70666 | 10.14336 | 2137 ft | 136 kts | 239° |
| 2026-04-24 16:39 | 53.70067 | 10.13118 | 2063 ft | 134 kts | 238° |
| 2026-04-24 16:39 | 53.69478 | 10.11910 | 1906 ft | 132 kts | 239° |
| 2026-04-24 16:39 | 53.68886 | 10.10709 | 1754 ft | 135 kts | 239° |
| 2026-04-24 16:39 | 53.68287 | 10.09495 | 1565 ft | 134 kts | 239° |
| 2026-04-24 16:40 | 53.67698 | 10.08296 | 1389 ft | 130 kts | 238° |
| 2026-04-24 16:40 | 53.67161 | 10.07208 | 1219 ft | 127 kts | 238° |
| 2026-04-24 16:40 | 53.66598 | 10.06058 | 1045 ft | 127 kts | 239° |
| 2026-04-24 16:40 | 53.66040 | 10.04929 | 857 ft | 124 kts | 238° |
| 2026-04-24 16:41 | 53.65488 | 10.03806 | 686 ft | 122 kts | 238° |
| 2026-04-24 16:41 | 53.64937 | 10.02693 | 533 ft | 124 kts | 236° |
| 2026-04-24 16:41 | 53.64396 | 10.01599 | 355 ft | 122 kts | 239° |
| 2026-04-24 16:41 | 53.63846 | 10.00472 | 163 ft | 125 kts | 236° |
| 2026-04-24 16:42 | 53.63295 | 9.99373 | 53 ft | 115 kts | 238° |
| 2026-04-24 16:42 | 53.62900 | 9.98502 | 43 ft | 67 kts | 232° |
| 2026-04-24 16:42 | 53.62630 | 9.97994 | 42 ft | 54 kts | 228° |
| 2026-04-24 16:42 | 53.62451 | 9.97777 | 40 ft | 0 kts | 158° |
| 2026-04-24 16:43 | 53.62438 | 9.97826 | 40 ft | 12 kts | 109° |
| 2026-04-24 16:43 | 53.62445 | 9.98074 | 41 ft | 24 kts | 64° |
| 2026-04-24 16:43 | 53.62545 | 9.98273 | 42 ft | 23 kts | 52° |
| 2026-04-24 16:43 | 53.62680 | 9.98531 | 42 ft | 35 kts | 46° |
| 2026-04-24 16:44 | 53.62863 | 9.98872 | 43 ft | 43 kts | 46° |
| 2026-04-24 16:44 | 53.63044 | 9.99249 | 44 ft | 41 kts | 47° |
| 2026-04-24 16:44 | 53.63208 | 9.99625 | 44 ft | 34 kts | 56° |
| 2026-04-24 16:44 | 53.63228 | 9.99676 | 44 ft | 0 kts | 56° |
| 2026-04-24 16:45 | 53.63230 | 9.99679 | 44 ft | 2 kts | 56° |
| 2026-04-24 16:45 | 53.63231 | 9.99682 | 44 ft | 0 kts | 56° |
| 2026-04-24 16:45 | 53.63238 | 9.99699 | 44 ft | 4 kts | 56° |
| 2026-04-24 16:45 | 53.63265 | 9.99755 | 44 ft | 9 kts | 50° |
| 2026-04-24 16:46 | 53.63335 | 9.99885 | 45 ft | 21 kts | 47° |
| 2026-04-24 16:46 | 53.63430 | 10.00109 | 43 ft | 23 kts | 88° |
| 2026-04-24 16:46 | 53.63398 | 10.00207 | 46 ft | 18 kts | 144° |
| 2026-04-24 16:46 | 53.63256 | 10.00241 | 45 ft | 22 kts | 172° |
| 2026-04-24 16:47 | 53.63104 | 10.00276 | 45 ft | 10 kts | 168° |
| 2026-04-24 16:47 | 53.63073 | 10.00384 | 45 ft | 6 kts | 94° |